Data for 04/09/2017

Time Sea-Level Adjusted Pressure Absolute Pressure Temperature Relative Humidity Dew Point   
(mb) (inHg) (mb) (inHg) (C) (F) (%) (C) (F)
00:05 1010 29.83 839 24.78 1.4 34.5 84 -1 30.3
00:10 1010 29.83 839 24.78 1.3 34.4 84 -1.1 30.1
00:15 1010 29.83 839 24.78 1.3 34.3 85 -1 30.2
00:20 1010 29.83 839 24.78 1.3 34.3 85 -0.9 30.4
00:25 1010 29.83 839 24.78 1.3 34.4 84 -1 30.1
00:30 1010 29.83 839 24.78 1.4 34.5 84 -1 30.3
00:35 1010 29.83 839 24.78 1.5 34.7 84 -1 30.3
00:40 1010 29.83 840 24.81 1.6 34.9 82 -1.1 30
00:45 1011 29.85 840 24.81 1.7 35.1 82 -1 30.1
00:50 1011 29.85 840 24.81 1.7 35.1 83 -0.9 30.4
00:55 1011 29.85 840 24.81 1.6 35 84 -0.8 30.6
01:00 1011 29.85 840 24.81 1.6 35 85 -0.7 30.8
01:05 1011 29.85 840 24.81 1.6 35 85 -0.7 30.8
01:10 1011 29.85 840 24.81 1.6 34.8 85 -0.8 30.6
01:15 1011 29.85 840 24.81 1.5 34.6 85 -0.7 30.7
01:20 1011 29.85 840 24.81 1.3 34.4 86 -0.8 30.6
01:25 1011 29.85 840 24.81 1.1 34 86 -1 30.2
01:30 1011 29.85 840 24.81 0.8 33.5 87 -1.1 30.1
01:35 1011 29.85 840 24.81 0.6 33.1 88 -1.1 30
01:40 1011 29.85 840 24.81 0.4 32.6 88 -1.3 29.6
01:45 1011 29.85 840 24.81 0.2 32.4 89 -1.4 29.5
01:50 1011 29.85 840 24.81 0.1 32.2 90 -1.4 29.6
01:55 1011 29.85 840 24.81 0.1 32.2 90 -1.3 29.6
02:00 1011 29.85 840 24.81 0.1 32.2 90 -1.3 29.6
02:05 1011 29.85 840 24.81 0.1 32.2 90 -1.3 29.6
02:10 1011 29.85 840 24.81 0.1 32.2 89 -1.4 29.4
02:15 1011 29.85 840 24.81 0.1 32.2 90 -1.4 29.5
02:20 1011 29.85 840 24.81 0.1 32.2 89 -1.5 29.3
02:25 1011 29.85 840 24.81 0.1 32.1 89 -1.5 29.2
02:30 1011 29.85 841 24.83 -0.2 31.7 89 -1.7 28.9
02:35 1011 29.85 841 24.83 -0.3 31.5 90 -1.8 28.8
02:40 1011 29.85 841 24.83 -0.4 31.3 90 -1.8 28.8
02:45 1011 29.85 841 24.83 -0.4 31.4 90 -1.8 28.7
02:50 1011 29.85 841 24.83 -0.3 31.4 89 -1.9 28.6
02:55 1011 29.85 841 24.83 -0.4 31.3 89 -2.1 28.3
03:00 1012 29.88 841 24.83 -0.5 31.1 89 -2.1 28.2
03:05 1012 29.88 841 24.83 -0.5 31.1 88 -2.2 28
03:10 1012 29.88 841 24.83 -0.6 30.9 89 -2.2 28
03:15 1012 29.88 841 24.83 -0.6 31 89 -2.1 28.2
03:20 1012 29.88 841 24.83 -0.5 31.1 88 -2.2 28
03:25 1012 29.88 841 24.83 -0.6 30.9 87 -2.5 27.5
03:30 1012 29.88 841 24.83 -0.6 31 87 -2.5 27.5
03:35 1012 29.88 841 24.83 -0.5 31 87 -2.5 27.5
03:40 1012 29.88 841 24.83 -0.6 30.9 88 -2.3 27.8
03:45 1012 29.88 841 24.83 -0.7 30.7 89 -2.2 28
03:50 1012 29.88 841 24.83 -0.7 30.7 90 -2.1 28.1
03:55 1012 29.88 841 24.83 -0.7 30.7 90 -2.1 28.2
04:00 1012 29.88 841 24.83 -0.8 30.5 90 -2.2 28
04:05 1012 29.88 841 24.83 -0.9 30.3 91 -2.3 27.9
04:10 1012 29.88 841 24.83 -1 30.2 91 -2.2 28
04:15 1012 29.88 841 24.83 -1.1 30.1 92 -2.2 28
04:20 1012 29.88 842 24.86 -1.1 29.9 92 -2.3 27.8
04:25 1012 29.88 842 24.86 -1.1 29.9 92 -2.3 27.9
04:30 1012 29.88 842 24.86 -1.2 29.9 91 -2.5 27.6
04:35 1013 29.91 842 24.86 -1.2 29.9 91 -2.5 27.5
04:40 1013 29.91 842 24.86 -1.2 29.8 91 -2.5 27.6
04:45 1013 29.91 842 24.86 -1.2 29.8 91 -2.5 27.5
04:50 1013 29.91 842 24.86 -1.2 29.8 91 -2.6 27.4
04:55 1013 29.91 842 24.86 -1.2 29.8 91 -2.6 27.3
05:00 1013 29.91 842 24.86 -1.3 29.7 91 -2.5 27.5
05:05 1013 29.91 842 24.86 -1.3 29.7 92 -2.5 27.5
05:10 1013 29.91 842 24.86 -1.3 29.6 92 -2.5 27.4
05:15 1013 29.91 842 24.86 -1.3 29.6 92 -2.5 27.5
05:20 1013 29.91 842 24.86 -1.4 29.6 92 -2.5 27.4
05:25 1013 29.91 842 24.86 -1.3 29.6 92 -2.5 27.5
05:30 1013 29.91 842 24.86 -1.3 29.6 91 -2.6 27.4
05:35 1013 29.91 843 24.89 -1.3 29.6 92 -2.5 27.5
05:40 1013 29.91 843 24.89 -1.3 29.6 92 -2.6 27.4
05:45 1013 29.91 843 24.89 -1.4 29.5 91 -2.6 27.3
05:50 1013 29.91 843 24.89 -1.4 29.5 92 -2.6 27.3
05:55 1014 29.94 843 24.89 -1.4 29.5 92 -2.6 27.4
06:00 1014 29.94 843 24.89 -1.4 29.5 92 -2.5 27.4
06:05 1014 29.94 843 24.89 -1.4 29.6 92 -2.5 27.5
06:10 1014 29.94 843 24.89 -1.4 29.5 92 -2.6 27.4
06:15 1014 29.94 843 24.89 -1.3 29.6 91 -2.6 27.4
06:20 1014 29.94 843 24.89 -1.4 29.5 91 -2.7 27.2
06:25 1014 29.94 843 24.89 -1.4 29.4 91 -2.7 27.1
06:30 1014 29.94 843 24.89 -1.4 29.5 90 -2.8 26.9
06:35 1014 29.94 843 24.89 -1.4 29.5 90 -2.8 26.9
06:40 1014 29.94 843 24.89 -1.4 29.4 90 -2.9 26.8
06:45 1014 29.94 844 24.92 -1.5 29.3 90 -2.9 26.8
06:50 1014 29.94 844 24.92 -1.4 29.4 90 -2.8 26.9
06:55 1014 29.94 844 24.92 -1.4 29.5 90 -2.8 26.9
07:00 1015 29.97 844 24.92 -1.4 29.4 90 -2.8 26.9
07:05 1015 29.97 844 24.92 -1.4 29.4 91 -2.8 27
07:10 1015 29.97 844 24.92 -1.4 29.6 90 -2.7 27.1
07:15 1015 29.97 844 24.92 -1.4 29.4 91 -2.8 27
07:20 1015 29.97 844 24.92 -1.4 29.5 90 -2.8 26.9
07:25 1015 29.97 844 24.92 -1.4 29.5 91 -2.8 27
07:30 1015 29.97 844 24.92 -1.3 29.6 90 -2.8 27
07:35 1015 29.97 844 24.92 -1.3 29.6 89 -2.9 26.8
07:40 1015 29.97 844 24.92 -1.3 29.7 89 -2.8 26.9
07:45 1015 29.97 844 24.92 -1.3 29.6 90 -2.8 26.9
07:50 1015 29.97 844 24.92 -1.3 29.6 90 -2.8 26.9
07:55 1015 29.97 844 24.92 -1.3 29.6 90 -2.8 27
08:00 1015 29.97 844 24.92 -1.3 29.7 90 -2.7 27.1
08:05 1015 29.97 845 24.95 -1.2 29.8 90 -2.7 27.2
08:10 1015 29.97 845 24.95 -1.2 29.8 90 -2.7 27.2
08:15 1015 29.97 845 24.95 -1.3 29.7 90 -2.7 27.1
08:20 1015 29.97 845 24.95 -1.3 29.7 90 -2.7 27.1
08:25 1015 29.97 845 24.95 -1.4 29.5 90 -2.8 27
08:30 1016 30 845 24.95 -1.2 29.8 91 -2.5 27.4
08:35 1016 30 845 24.95 -1.2 29.9 91 -2.4 27.6
08:40 1016 30 845 24.95 -1.1 30.1 91 -2.4 27.8
08:45 1016 30 845 24.95 -1 30.2 91 -2.3 27.8
08:50 1016 30 845 24.95 -0.9 30.4 90 -2.3 27.9
08:55 1016 30 845 24.95 -0.7 30.7 90 -2.2 28.1
09:00 1016 30 845 24.95 -0.6 30.9 89 -2.2 28
09:05 1016 30 845 24.95 -0.6 31 89 -2.1 28.2
09:10 1016 30 845 24.95 -0.5 31.1 89 -2.1 28.2
09:15 1016 30 845 24.95 -0.6 30.9 88 -2.3 27.9
09:20 1016 30 845 24.95 -0.7 30.8 87 -2.6 27.3
09:25 1016 30 845 24.95 -0.7 30.7 83 -3.3 26
09:30 1016 30 845 24.95 -0.6 30.9 82 -3.3 26.1
09:35 1016 30 845 24.95 -0.3 31.5 81 -3.1 26.4
09:40 1016 30 845 24.95 -0.1 31.9 76 -3.9 25.1
09:45 1016 30 845 24.95 -0 32 77 -3.5 25.6
09:50 1016 30 845 24.95 -0 32 81 -2.8 26.9
09:55 1016 30 845 24.95 -0.2 31.6 81 -3.1 26.5
10:00 1016 30 846 24.98 -0.2 31.7 81 -3 26.5
10:05 1016 30 846 24.98 0.1 32.2 79 -3.2 26.3
10:10 1016 30 846 24.98 -0.2 31.6 79 -3.4 25.9
10:15 1016 30 846 24.98 -0.2 31.6 78 -3.6 25.6
10:20 1017 30.03 846 24.98 -0.1 31.7 77 -3.7 25.3
10:25 1017 30.03 846 24.98 0 32 77 -3.5 25.7
10:30 1017 30.03 846 24.98 0.3 32.5 74 -3.8 25.1
10:35 1017 30.03 846 24.98 0.4 32.8 74 -3.7 25.4
10:40 1017 30.03 846 24.98 0.7 33.3 74 -3.3 26
10:45 1017 30.03 846 24.98 0.5 32.9 75 -3.4 25.9
10:50 1017 30.03 846 24.98 0.3 32.5 76 -3.5 25.7
10:55 1017 30.03 846 24.98 0.9 33.6 73 -3.4 25.9
11:00 1017 30.03 846 24.98 1.4 34.4 70 -3.4 25.8
11:05 1017 30.03 846 24.98 1.7 35 71 -3 26.6
11:10 1017 30.03 846 24.98 1.6 34.9 68 -3.7 25.4
11:15 1017 30.03 846 24.98 1.2 34.2 70 -3.7 25.3
11:20 1017 30.03 846 24.98 1.5 34.7 67 -4 24.8
11:25 1017 30.03 846 24.98 2 35.6 60 -4.9 23.2
11:30 1017 30.03 846 24.98 2.3 36.1 61 -4.6 23.8
11:35 1017 30.03 846 24.98 2.4 36.3 61 -4.4 24.1
11:40 1017 30.03 846 24.98 2.5 36.4 64 -3.6 25.5
11:45 1017 30.03 846 24.98 2.3 36.2 65 -3.5 25.7
11:50 1017 30.03 846 24.98 1.7 35.1 70 -3.2 26.2
11:55 1017 30.03 846 24.98 1.1 34 70 -3.8 25.2
12:00 1017 30.03 846 24.98 1.2 34.1 71 -3.6 25.6
12:05 1017 30.03 846 24.98 1 33.8 74 -3.1 26.3
12:10 1017 30.03 846 24.98 1.4 34.4 69 -3.8 25.2
12:15 1017 30.03 846 24.98 0.7 33.3 71 -4 24.9
12:20 1017 30.03 846 24.98 0.9 33.6 71 -3.7 25.3
12:25 1017 30.03 846 24.98 1 33.9 68 -4.1 24.6
12:30 1017 30.03 847 25.01 1.3 34.3 67 -4.2 24.4
12:35 1017 30.03 847 25.01 2 35.6 63 -4.2 24.4
12:40 1017 30.03 847 25.01 1.8 35.2 69 -3.4 25.9
12:45 1017 30.03 847 25.01 2.1 35.8 63 -4.2 24.5
12:50 1017 30.03 847 25.01 2.4 36.2 62 -4.2 24.5
12:55 1017 30.03 847 25.01 2.3 36.1 63 -4.2 24.5
13:00 1018 30.06 847 25.01 1.9 35.4 65 -3.9 24.9
13:05 1018 30.06 847 25.01 2.1 35.8 64 -3.9 24.9
13:10 1018 30.06 847 25.01 2.9 37.2 62 -3.7 25.4
13:15 1018 30.06 847 25.01 3.2 37.8 60 -3.8 25.2
13:20 1018 30.06 847 25.01 3.3 37.9 61 -3.5 25.7
13:25 1018 30.06 847 25.01 3.1 37.6 60 -3.9 24.9
13:30 1018 30.06 847 25.01 3.2 37.8 58 -4.3 24.2
13:35 1018 30.06 847 25.01 3.3 38 59 -3.9 25
13:40 1018 30.06 847 25.01 3.4 38 60 -3.8 25.2
13:45 1018 30.06 847 25.01 3.4 38.1 59 -3.9 24.9
13:50 1018 30.06 847 25.01 3.1 37.6 59 -4.2 24.5
13:55 1018 30.06 847 25.01 3.2 37.8 59 -4 24.8
14:00 1018 30.06 847 25.01 3 37.4 60 -3.9 24.9
14:05 1018 30.06 847 25.01 3.4 38.2 55 -4.7 23.6
14:10 1018 30.06 847 25.01 3.7 38.7 55 -4.5 23.9
14:15 1018 30.06 847 25.01 4.3 39.8 53 -4.3 24.2
14:20 1018 30.06 847 25.01 4.1 39.4 56 -3.9 25
14:25 1018 30.06 847 25.01 3.2 37.7 59 -4.1 24.7
14:30 1018 30.06 847 25.01 3.5 38.3 56 -4.5 23.9
14:35 1018 30.06 847 25.01 3.9 39.1 56 -4 24.8
14:40 1018 30.06 847 25.01 3.5 38.3 59 -3.8 25.1
14:45 1018 30.06 847 25.01 4 39.2 57 -3.8 25.1
14:50 1018 30.06 847 25.01 3.8 38.8 59 -3.5 25.7
14:55 1018 30.06 847 25.01 3.7 38.7 63 -2.7 27.1
15:00 1018 30.06 847 25.01 4.4 39.9 54 -4.2 24.4
15:05 1018 30.06 847 25.01 5.7 42.3 51 -3.7 25.4
15:10 1018 30.06 847 25.01 5.6 42.1 50 -4 24.8
15:15 1018 30.06 847 25.01 5.4 41.7 47 -4.9 23.2
15:20 1018 30.06 847 25.01 5 41 51 -4.4 24
15:25 1018 30.06 847 25.01 4.6 40.3 52 -4.5 24
15:30 1018 30.06 847 25.01 4.4 39.8 54 -4.2 24.4
15:35 1018 30.06 847 25.01 4.2 39.5 57 -3.6 25.6
15:40 1018 30.06 847 25.01 4.2 39.5 53 -4.5 23.9
15:45 1018 30.06 847 25.01 5 41.1 51 -4.2 24.4
15:50 1018 30.06 847 25.01 4.8 40.7 53 -3.8 25.1
15:55 1018 30.06 847 25.01 4.4 39.9 52 -4.6 23.6
16:00 1018 30.06 847 25.01 4.2 39.6 57 -3.6 25.5
16:05 1018 30.06 847 25.01 3.4 38 57 -4.3 24.2
16:10 1018 30.06 847 25.01 3.4 38.1 56 -4.5 23.9
16:15 1018 30.06 848 25.04 2.9 37.2 60 -4.1 24.6
16:20 1018 30.06 848 25.04 2.8 37 59 -4.4 24.1
16:25 1018 30.06 848 25.04 2.9 37.3 58 -4.5 23.9
16:30 1018 30.06 848 25.04 3.3 37.9 58 -4.1 24.5
16:35 1018 30.06 848 25.04 2.8 37 64 -3.5 25.8
16:40 1019 30.09 848 25.04 2.6 36.7 63 -3.7 25.3
16:45 1019 30.09 848 25.04 2.6 36.7 62 -4 24.7
16:50 1019 30.09 848 25.04 3 37.3 63 -3.3 26
16:55 1019 30.09 848 25.04 2.8 37 67 -2.7 27.1
17:00 1019 30.09 848 25.04 2.4 36.4 67 -3.1 26.5
17:05 1019 30.09 848 25.04 2.6 36.8 66 -3 26.5
17:10 1019 30.09 848 25.04 2.6 36.8 62 -3.9 24.9
17:15 1019 30.09 848 25.04 2.4 36.3 62 -4.1 24.6
17:20 1019 30.09 848 25.04 2.6 36.6 62 -4 24.8
17:25 1019 30.09 848 25.04 2.6 36.8 63 -3.7 25.4
17:30 1019 30.09 848 25.04 2.7 36.9 64 -3.4 25.9
17:35 1019 30.09 848 25.04 2.5 36.4 63 -3.9 25
17:40 1019 30.09 848 25.04 2.4 36.4 60 -4.5 23.8
17:45 1019 30.09 848 25.04 2.3 36.2 62 -4.2 24.4
17:50 1019 30.09 848 25.04 2.5 36.5 62 -4.1 24.6
17:55 1019 30.09 848 25.04 2.7 36.8 61 -4.1 24.6
18:00 1019 30.09 848 25.04 2.8 37 61 -4 24.8
18:05 1019 30.09 848 25.04 2.8 37 59 -4.4 24.1
18:10 1019 30.09 848 25.04 2.6 36.7 59 -4.5 23.8
18:15 1019 30.09 848 25.04 2.6 36.6 57 -5 22.9
18:20 1019 30.09 848 25.04 2.7 36.8 58 -4.8 23.4
18:25 1019 30.09 848 25.04 2.8 37 57 -4.8 23.3
18:30 1019 30.09 848 25.04 2.7 36.8 59 -4.6 23.7
18:35 1019 30.09 848 25.04 2.7 36.8 58 -4.7 23.6
18:40 1019 30.09 848 25.04 2.6 36.6 58 -4.9 23.3
18:45 1019 30.09 848 25.04 2.5 36.4 59 -4.6 23.6
18:50 1019 30.09 848 25.04 2.4 36.3 59 -4.8 23.3
18:55 1019 30.09 848 25.04 2.4 36.4 59 -4.7 23.5
19:00 1019 30.09 848 25.04 2.5 36.5 60 -4.5 23.9
19:05 1019 30.09 848 25.04 2.5 36.5 59 -4.6 23.7
19:10 1019 30.09 848 25.04 2.5 36.5 58 -4.8 23.3
19:15 1019 30.09 848 25.04 2.4 36.3 58 -5.1 22.9
19:20 1019 30.09 848 25.04 2.1 35.8 59 -5 22.9
19:25 1019 30.09 848 25.04 2 35.5 61 -4.8 23.4
19:30 1019 30.09 848 25.04 1.8 35.2 62 -4.8 23.4
19:35 1019 30.09 848 25.04 1.6 34.8 64 -4.5 24
19:40 1019 30.09 848 25.04 1.4 34.5 66 -4.3 24.2
19:45 1019 30.09 849 25.07 1.2 34.1 68 -4.2 24.5
19:50 1019 30.09 849 25.07 0.9 33.7 68 -4.3 24.2
19:55 1019 30.09 849 25.07 0.9 33.6 67 -4.5 23.8
20:00 1019 30.09 849 25.07 0.9 33.6 69 -4.2 24.4
20:05 1020 30.12 849 25.07 0.6 33 73 -3.7 25.3
20:10 1020 30.12 849 25.07 0 32.1 72 -4.5 24
20:15 1020 30.12 849 25.07 0.1 32.3 71 -4.5 24
20:20 1020 30.12 849 25.07 0 32.1 73 -4.3 24.2
20:25 1020 30.12 849 25.07 -0.3 31.5 75 -4.3 24.3
20:30 1020 30.12 849 25.07 -0.4 31.3 76 -4.2 24.4
20:35 1020 30.12 849 25.07 -0.5 31.2 78 -3.9 25
20:40 1020 30.12 849 25.07 -0.6 31 79 -3.8 25.2
20:45 1020 30.12 849 25.07 -0.6 30.8 79 -3.8 25.2
20:50 1020 30.12 849 25.07 -0.7 30.7 79 -3.8 25.1
20:55 1020 30.12 849 25.07 -0.8 30.6 78 -4.1 24.7
21:00 1020 30.12 849 25.07 -0.7 30.7 78 -4.1 24.6
21:05 1020 30.12 849 25.07 -0.9 30.4 79 -4.2 24.5
21:10 1020 30.12 849 25.07 -1.1 30 78 -4.4 24.1
21:15 1020 30.12 849 25.07 -1.2 29.9 78 -4.5 23.9
21:20 1020 30.12 849 25.07 -1.2 29.8 78 -4.6 23.7
21:25 1020 30.12 849 25.07 -1.2 29.9 78 -4.6 23.7
21:30 1020 30.12 849 25.07 -1.2 29.9 78 -4.5 23.9
21:35 1020 30.12 849 25.07 -1.2 29.9 78 -4.5 23.9
21:40 1020 30.12 849 25.07 -1.3 29.7 79 -4.5 23.9
21:45 1020 30.12 849 25.07 -1.3 29.7 79 -4.5 23.9
21:50 1020 30.12 849 25.07 -1.2 29.9 79 -4.4 24.1
21:55 1020 30.12 849 25.07 -1.1 30 78 -4.4 24
22:00 1020 30.12 849 25.07 -1.1 29.9 78 -4.5 23.9
22:05 1020 30.12 849 25.07 -1.1 30 78 -4.5 23.9
22:10 1020 30.12 849 25.07 -1.1 30 78 -4.5 23.8
22:15 1020 30.12 849 25.07 -1.1 30 77 -4.7 23.6
22:20 1020 30.12 849 25.07 -1.1 30.1 77 -4.6 23.7
22:25 1020 30.12 849 25.07 -1.1 30 77 -4.6 23.6
22:30 1020 30.12 849 25.07 -1.1 30 76 -4.8 23.4
22:35 1020 30.12 849 25.07 -1.1 30 76 -4.8 23.3
22:40 1020 30.12 849 25.07 -1.1 30 76 -4.9 23.3
22:45 1020 30.12 849 25.07 -1.1 29.9 76 -4.9 23.2
22:50 1020 30.12 849 25.07 -1.1 30 76 -4.8 23.3
22:55 1020 30.12 849 25.07 -1.2 29.8 76 -4.9 23.1
23:00 1020 30.12 849 25.07 -1.4 29.5 76 -5 23
23:05 1020 30.12 849 25.07 -1.4 29.5 76 -5 22.9
23:10 1020 30.12 849 25.07 -1.5 29.3 77 -5.1 22.9
23:15 1020 30.12 849 25.07 -1.5 29.2 77 -5.1 22.7
23:20 1020 30.12 849 25.07 -1.5 29.3 76 -5.2 22.6
23:25 1020 30.12 849 25.07 -1.5 29.3 76 -5.3 22.5
23:30 1020 30.12 849 25.07 -1.6 29.1 76 -5.3 22.4
23:35 1020 30.12 849 25.07 -1.7 28.9 77 -5.3 22.4
23:40 1020 30.12 849 25.07 -1.8 28.7 77 -5.4 22.3
23:45 1020 30.12 849 25.07 -2 28.5 78 -5.4 22.3
23:50 1020 30.12 849 25.07 -2.1 28.2 78 -5.4 22.3
23:55 1020 30.12 849 25.07 -2.1 28.2 78 -5.4 22.3
24:00 1020 30.12 849 25.07 -2.2 28.1 78 -5.4 22.2